Time;durP1;ratioP1;P1;durP2;ratioP2;P2;SDS_P1;SDS_P2;PMS_P1;PMS_P2;Temp;Humidity;BMP_temperature;BMP_pressure;BME280_temperature;BME280_humidity;BME280_pressure;Samples;Min_cycle;Max_cycle;Signal;HPM_P1;HPM_P2
2023/08/23 00:00:04;;;;;;;0.10;0.10;;;17.50;99.90;;;;;;4935555;28;20039;-69
2023/08/23 00:02:30;;;;;;;0.00;0.00;;;17.50;99.90;;;;;;4903951;28;20056;-69
2023/08/23 00:04:56;;;;;;;0.10;0.10;;;17.50;99.90;;;;;;4928333;28;20050;-69
2023/08/23 00:07:21;;;;;;;0.30;0.30;;;17.50;99.90;;;;;;4957432;28;20502;-69
2023/08/23 00:09:47;;;;;;;0.20;0.20;;;17.50;99.90;;;;;;4951443;28;20044;-69
2023/08/23 00:12:13;;;;;;;0.08;0.08;;;17.50;99.90;;;;;;4943878;28;20281;-69
2023/08/23 00:14:38;;;;;;;0.25;0.25;;;17.50;99.90;;;;;;4930564;28;20463;-69
2023/08/23 00:17:04;;;;;;;0.20;0.20;;;17.50;99.90;;;;;;4934273;28;20127;-69
2023/08/23 00:19:30;;;;;;;8.25;1.02;;;17.50;99.90;;;;;;4940250;28;20080;-70
2023/08/23 00:21:56;;;;;;;0.65;0.52;;;17.50;99.90;;;;;;4923574;28;20068;-68
2023/08/23 00:24:21;;;;;;;0.00;0.00;;;17.50;99.90;;;;;;4959415;28;20047;-69
2023/08/23 00:26:47;;;;;;;0.10;0.10;;;17.50;99.90;;;;;;4918172;28;20048;-69
2023/08/23 00:29:12;;;;;;;0.17;0.17;;;17.40;99.90;;;;;;4919723;28;20055;-69
2023/08/23 00:31:38;;;;;;;0.63;0.60;;;17.40;99.90;;;;;;4917867;28;20036;-69
2023/08/23 00:34:04;;;;;;;0.03;0.03;;;17.30;99.90;;;;;;4908219;28;20056;-69
2023/08/23 00:36:29;;;;;;;0.10;0.10;;;17.30;99.90;;;;;;4935751;28;20235;-69
2023/08/23 00:38:55;;;;;;;0.00;0.00;;;17.30;99.90;;;;;;4934762;28;20559;-68
2023/08/23 00:41:22;;;;;;;0.22;0.22;;;17.30;99.90;;;;;;4953100;28;20102;-69
2023/08/23 00:43:48;;;;;;;0.30;0.30;;;17.40;99.90;;;;;;4915790;28;20143;-69
2023/08/23 00:46:14;;;;;;;1.10;0.32;;;17.40;99.90;;;;;;4939356;28;20131;-68
2023/08/23 00:48:40;;;;;;;0.35;0.35;;;17.40;99.90;;;;;;4935653;28;20049;-69
2023/08/23 00:51:07;;;;;;;0.25;0.25;;;17.40;99.90;;;;;;4917959;28;20054;-69
2023/08/23 00:53:33;;;;;;;0.00;0.00;;;17.30;99.90;;;;;;4938340;28;20083;-69
2023/08/23 00:56:00;;;;;;;0.22;0.20;;;17.20;99.90;;;;;;4959351;28;20029;-69
2023/08/23 00:58:25;;;;;;;1.35;0.90;;;17.30;99.90;;;;;;4928746;28;20129;-69
2023/08/23 01:00:54;;;;;;;0.05;0.05;;;17.30;99.90;;;;;;4930590;28;20126;-68
2023/08/23 01:03:20;;;;;;;0.20;0.20;;;17.40;99.90;;;;;;4959081;28;20079;-69
2023/08/23 01:06:07;;;;;;;0.20;0.20;;;17.30;99.90;;;;;;4947815;28;20041;-69
2023/08/23 01:09:07;;;;;;;0.75;0.45;;;17.40;99.90;;;;;;4941261;28;20504;-68
2023/08/23 01:11:47;;;;;;;0.00;0.00;;;17.40;99.90;;;;;;4932536;28;20135;-69
2023/08/23 01:14:37;;;;;;;0.80;0.75;;;17.50;99.90;;;;;;4914835;28;20424;-69
2023/08/23 01:17:04;;;;;;;0.00;0.00;;;17.50;99.90;;;;;;4934523;28;20055;-69
2023/08/23 01:19:42;;;;;;;0.08;0.08;;;17.50;99.90;;;;;;4954566;28;20060;-70
2023/08/23 01:22:11;;;;;;;0.32;0.32;;;17.60;99.90;;;;;;4928276;28;20048;-69
2023/08/23 01:24:37;;;;;;;1.48;0.75;;;17.60;99.90;;;;;;4943539;28;20052;-70
2023/08/23 01:27:02;;;;;;;0.55;0.55;;;17.60;99.90;;;;;;4914229;28;20048;-69
2023/08/23 01:29:28;;;;;;;0.95;0.52;;;17.60;99.90;;;;;;4918329;28;20059;-70
2023/08/23 01:32:00;;;;;;;0.40;0.40;;;17.50;99.90;;;;;;4952279;28;20094;-69
2023/08/23 01:34:29;;;;;;;0.63;0.47;;;17.60;99.90;;;;;;4961606;28;20073;-69
2023/08/23 01:36:56;;;;;;;0.17;0.17;;;17.60;99.90;;;;;;4953960;28;20051;-69
2023/08/23 01:39:24;;;;;;;0.20;0.20;;;17.70;99.90;;;;;;4928737;28;20052;-69
2023/08/23 01:41:50;;;;;;;0.32;0.32;;;17.70;99.90;;;;;;4908688;28;20400;-69
2023/08/23 01:44:16;;;;;;;0.00;0.00;;;17.70;99.90;;;;;;4956771;28;20127;-70
2023/08/23 01:46:42;;;;;;;0.10;0.10;;;17.70;99.90;;;;;;4936218;28;20135;-70
2023/08/23 01:49:07;;;;;;;0.20;0.20;;;17.80;99.90;;;;;;4907975;28;20120;-69
2023/08/23 01:51:33;;;;;;;0.00;0.00;;;17.80;99.90;;;;;;4954047;28;20885;-70
2023/08/23 01:53:59;;;;;;;0.45;0.45;;;17.80;99.90;;;;;;4924081;28;20686;-69
2023/08/23 01:56:24;;;;;;;0.20;0.20;;;17.80;99.90;;;;;;4930094;28;20062;-70
2023/08/23 01:58:50;;;;;;;0.47;0.35;;;17.80;99.90;;;;;;4963515;28;20056;-69
2023/08/23 02:01:15;;;;;;;0.25;0.25;;;17.90;99.90;;;;;;4959400;28;20515;-70
2023/08/23 02:03:41;;;;;;;0.25;0.25;;;17.80;99.90;;;;;;4927821;28;20053;-69
2023/08/23 02:06:07;;;;;;;0.10;0.10;;;17.80;99.90;;;;;;4952972;28;20044;-69
2023/08/23 02:08:32;;;;;;;0.43;0.43;;;17.80;99.90;;;;;;4925496;28;20057;-69
2023/08/23 02:10:58;;;;;;;0.00;0.00;;;17.70;99.90;;;;;;4950212;28;20400;-70
2023/08/23 02:13:23;;;;;;;0.00;0.00;;;17.80;99.90;;;;;;4974743;28;20042;-70
2023/08/23 02:15:49;;;;;;;0.47;0.47;;;17.70;99.90;;;;;;4934441;28;20045;-70
2023/08/23 02:18:15;;;;;;;0.20;0.20;;;17.70;99.90;;;;;;4955000;28;20052;-70
2023/08/23 02:20:40;;;;;;;0.00;0.00;;;17.80;99.90;;;;;;4944160;28;20052;-70
2023/08/23 02:23:06;;;;;;;0.20;0.20;;;17.80;99.90;;;;;;4939601;28;20458;-70
2023/08/23 02:25:31;;;;;;;0.32;0.10;;;17.80;99.90;;;;;;4944508;28;20043;-70
2023/08/23 02:27:57;;;;;;;0.15;0.15;;;17.70;99.90;;;;;;4962059;28;20037;-70
2023/08/23 02:30:22;;;;;;;0.28;0.20;;;17.70;99.90;;;;;;4916564;28;20052;-70
2023/08/23 02:32:48;;;;;;;0.57;0.57;;;17.70;99.90;;;;;;4936139;28;20048;-70
2023/08/23 02:35:14;;;;;;;0.00;0.00;;;17.70;99.90;;;;;;4903635;28;20052;-70
2023/08/23 02:37:39;;;;;;;0.00;0.00;;;17.70;99.90;;;;;;4958637;28;20109;-69
2023/08/23 02:40:06;;;;;;;0.10;0.10;;;17.60;99.90;;;;;;4917517;28;20037;-70
2023/08/23 02:42:31;;;;;;;2.10;0.90;;;17.60;99.90;;;;;;4913363;28;20370;-70
2023/08/23 02:44:57;;;;;;;0.00;0.00;;;17.60;99.90;;;;;;4926789;28;20102;-70
2023/08/23 02:47:22;;;;;;;0.10;0.10;;;17.60;99.90;;;;;;4976242;28;20100;-70
2023/08/23 02:49:48;;;;;;;0.20;0.20;;;17.70;99.90;;;;;;4908119;28;20095;-70
2023/08/23 02:52:14;;;;;;;0.10;0.10;;;17.70;99.90;;;;;;4948387;28;20046;-70
2023/08/23 02:54:39;;;;;;;0.00;0.00;;;17.80;99.90;;;;;;4954670;28;20103;-70
2023/08/23 02:57:05;;;;;;;1.27;0.75;;;17.80;99.90;;;;;;4929548;28;20048;-70
2023/08/23 02:59:30;;;;;;;0.50;0.50;;;17.80;99.90;;;;;;4916035;28;20044;-70
2023/08/23 03:01:56;;;;;;;0.05;0.05;;;17.70;99.90;;;;;;4964277;28;20052;-70
2023/08/23 03:04:21;;;;;;;0.13;0.13;;;17.80;99.90;;;;;;4921379;28;20052;-70
2023/08/23 03:06:47;;;;;;;0.25;0.25;;;17.80;99.90;;;;;;4951001;28;20045;-70
2023/08/23 03:09:12;;;;;;;0.00;0.00;;;17.90;99.90;;;;;;4957071;28;20048;-70
2023/08/23 03:11:38;;;;;;;0.82;0.32;;;17.90;99.90;;;;;;4915489;28;20034;-70
2023/08/23 03:14:04;;;;;;;0.00;0.00;;;17.90;99.90;;;;;;4915481;28;20044;-70
2023/08/23 03:16:29;;;;;;;0.00;0.00;;;18.00;99.90;;;;;;4978200;28;20106;-70
2023/08/23 03:18:55;;;;;;;0.00;0.00;;;18.00;99.90;;;;;;4966789;28;20151;-70
2023/08/23 03:21:21;;;;;;;0.55;0.25;;;18.00;99.90;;;;;;4913974;28;20043;-70
2023/08/23 03:23:46;;;;;;;0.63;0.63;;;18.00;99.90;;;;;;4946134;28;20075;-69
2023/08/23 03:26:12;;;;;;;1.30;1.10;;;18.00;99.90;;;;;;4936623;28;20042;-70
2023/08/23 03:28:37;;;;;;;0.10;0.10;;;18.00;99.90;;;;;;4908783;28;20127;-69
2023/08/23 03:31:04;;;;;;;0.22;0.22;;;17.90;99.90;;;;;;4955110;28;20034;-69
2023/08/23 03:33:30;;;;;;;0.28;0.28;;;17.90;99.90;;;;;;4947613;28;20048;-70
2023/08/23 03:35:56;;;;;;;0.15;0.15;;;17.90;99.90;;;;;;4945249;28;20079;-69
2023/08/23 03:38:21;;;;;;;3.20;0.25;;;17.80;99.90;;;;;;4969554;28;20041;-70
2023/08/23 03:40:48;;;;;;;0.35;0.35;;;17.80;99.90;;;;;;4923610;28;20041;-69
2023/08/23 03:43:14;;;;;;;0.47;0.47;;;17.80;99.90;;;;;;4949264;28;20053;-69
2023/08/23 03:45:50;;;;;;;0.30;0.28;;;17.80;99.90;;;;;;4945928;28;20052;-69
2023/08/23 03:48:18;;;;;;;0.15;0.15;;;17.70;99.90;;;;;;4938258;28;20048;-69
2023/08/23 03:50:44;;;;;;;0.25;0.25;;;17.80;99.90;;;;;;4924350;28;20056;-69
2023/08/23 03:53:10;;;;;;;0.10;0.10;;;17.70;99.90;;;;;;4953580;28;20053;-70
2023/08/23 03:55:36;;;;;;;1.02;0.93;;;17.80;99.90;;;;;;4934205;28;20056;-69
2023/08/23 03:58:06;;;;;;;0.22;0.22;;;17.70;99.90;;;;;;4943410;28;20040;-70
2023/08/23 04:00:32;;;;;;;0.00;0.00;;;17.70;99.90;;;;;;4932098;28;20045;-70
2023/08/23 04:02:58;;;;;;;0.28;0.28;;;17.80;99.90;;;;;;4926616;28;20040;-69
2023/08/23 04:05:23;;;;;;;0.32;0.22;;;17.70;99.90;;;;;;4965049;28;20034;-69
2023/08/23 04:07:49;;;;;;;0.10;0.10;;;17.80;99.90;;;;;;4957490;28;20034;-69
2023/08/23 04:10:14;;;;;;;0.30;0.30;;;17.80;99.90;;;;;;4919349;28;20056;-70
2023/08/23 04:12:40;;;;;;;1.38;0.63;;;17.80;99.90;;;;;;4967070;28;20453;-69
2023/08/23 04:15:06;;;;;;;0.08;0.08;;;17.80;99.90;;;;;;4934127;28;20107;-69
2023/08/23 04:17:32;;;;;;;1.17;0.57;;;17.80;99.90;;;;;;4960015;28;20079;-69
2023/08/23 04:19:57;;;;;;;0.45;0.38;;;17.70;99.90;;;;;;4925481;28;20040;-69
2023/08/23 04:22:23;;;;;;;2.65;0.65;;;17.70;99.90;;;;;;4943809;28;20055;-70
2023/08/23 04:24:49;;;;;;;0.22;0.22;;;17.60;99.90;;;;;;4911622;28;20046;-69
2023/08/23 04:27:15;;;;;;;0.20;0.20;;;17.60;99.90;;;;;;4949486;28;20131;-69
2023/08/23 04:29:40;;;;;;;0.22;0.22;;;17.70;99.90;;;;;;4967709;28;20142;-69
2023/08/23 04:32:09;;;;;;;0.00;0.00;;;17.70;99.90;;;;;;4955671;28;20052;-69
2023/08/23 04:34:35;;;;;;;0.35;0.32;;;17.70;99.90;;;;;;4939834;28;20050;-69
2023/08/23 04:37:01;;;;;;;0.47;0.47;;;17.70;99.90;;;;;;4942523;28;20104;-69
2023/08/23 04:39:26;;;;;;;0.32;0.32;;;17.70;99.90;;;;;;4950877;28;20036;-69
2023/08/23 04:41:52;;;;;;;3.03;1.55;;;17.60;99.90;;;;;;4917638;28;20084;-70
2023/08/23 04:44:17;;;;;;;0.52;0.52;;;17.70;99.90;;;;;;4945138;28;20054;-69
2023/08/23 04:46:44;;;;;;;0.75;0.40;;;17.60;99.90;;;;;;4946423;28;20145;-69
2023/08/23 04:49:10;;;;;;;0.85;0.65;;;17.50;99.90;;;;;;4968850;28;20046;-69
2023/08/23 04:51:35;;;;;;;0.00;0.00;;;17.50;99.90;;;;;;4935534;28;20042;-69
2023/08/23 04:54:01;;;;;;;0.08;0.08;;;17.50;99.90;;;;;;4956577;28;20048;-69
2023/08/23 04:56:27;;;;;;;0.40;0.30;;;17.60;99.90;;;;;;4970199;28;20120;-69
2023/08/23 04:58:53;;;;;;;0.00;0.00;;;17.50;99.90;;;;;;4925100;28;20138;-69
2023/08/23 05:01:18;;;;;;;0.20;0.20;;;17.50;99.90;;;;;;4943108;28;20102;-69
2023/08/23 05:03:44;;;;;;;0.40;0.40;;;17.50;99.90;;;;;;4945206;28;20056;-70
2023/08/23 05:06:09;;;;;;;1.55;0.98;;;17.50;99.90;;;;;;4914555;28;20262;-69
2023/08/23 05:08:35;;;;;;;1.65;0.40;;;17.50;99.90;;;;;;4962104;28;20073;-69
2023/08/23 05:11:01;;;;;;;0.10;0.10;;;17.40;99.90;;;;;;4983245;28;20370;-69
2023/08/23 05:13:27;;;;;;;0.20;0.20;;;17.40;99.90;;;;;;4922879;28;20130;-69
2023/08/23 05:15:57;;;;;;;1.95;1.67;;;17.40;99.90;;;;;;4937107;28;20038;-69
2023/08/23 05:18:23;;;;;;;0.47;0.47;;;17.40;99.90;;;;;;4934215;28;20048;-69
2023/08/23 05:20:54;;;;;;;0.00;0.00;;;17.40;99.90;;;;;;4954054;28;20498;-69
2023/08/23 05:23:23;;;;;;;0.90;0.20;;;17.40;99.90;;;;;;4910428;28;20052;-70
2023/08/23 05:25:51;;;;;;;0.40;0.40;;;17.40;99.90;;;;;;4937407;28;20050;-69
2023/08/23 05:28:20;;;;;;;0.73;0.65;;;17.50;99.90;;;;;;4925686;28;20480;-69
2023/08/23 05:30:46;;;;;;;0.20;0.20;;;17.50;99.90;;;;;;4923421;28;20049;-69
2023/08/23 05:33:12;;;;;;;0.10;0.10;;;17.60;99.90;;;;;;4960230;28;20075;-70
2023/08/23 05:35:40;;;;;;;0.22;0.22;;;17.70;99.90;;;;;;4953345;28;20050;-69
2023/08/23 05:38:07;;;;;;;0.10;0.10;;;17.60;99.90;;;;;;4939388;28;20051;-70
2023/08/23 05:40:32;;;;;;;0.10;0.10;;;17.60;99.90;;;;;;4923239;28;20790;-70
2023/08/23 05:42:58;;;;;;;2.28;0.57;;;17.70;99.90;;;;;;4944568;28;20052;-70
2023/08/23 05:45:26;;;;;;;2.25;1.10;;;17.70;99.90;;;;;;4969889;28;20076;-69
2023/08/23 05:47:54;;;;;;;0.30;0.30;;;17.70;99.90;;;;;;4935786;28;20443;-69
2023/08/23 05:50:20;;;;;;;0.20;0.20;;;17.70;99.90;;;;;;4948226;28;20181;-70
2023/08/23 05:52:46;;;;;;;18.10;0.90;;;17.80;99.90;;;;;;4951646;28;20111;-70
2023/08/23 05:55:12;;;;;;;0.00;0.00;;;17.80;99.90;;;;;;4982453;28;20462;-70
2023/08/23 05:57:37;;;;;;;3.30;1.35;;;17.80;99.90;;;;;;4911154;28;20044;-70
2023/08/23 06:00:05;;;;;;;0.13;0.13;;;17.80;99.90;;;;;;4953202;28;20045;-69
2023/08/23 06:02:30;;;;;;;0.45;0.22;;;17.80;99.90;;;;;;4948939;28;20048;-69
2023/08/23 06:04:56;;;;;;;1.55;0.90;;;17.80;99.90;;;;;;4937217;28;20048;-70
2023/08/23 06:07:22;;;;;;;0.30;0.30;;;17.90;99.90;;;;;;4956422;28;20488;-69
2023/08/23 06:09:47;;;;;;;1.63;0.60;;;17.90;99.90;;;;;;4951919;28;20048;-69
2023/08/23 06:12:13;;;;;;;0.05;0.05;;;18.00;99.90;;;;;;4938431;28;20053;-70
2023/08/23 06:14:39;;;;;;;0.40;0.40;;;18.00;99.90;;;;;;4926623;28;20088;-70
2023/08/23 06:17:04;;;;;;;0.15;0.15;;;18.00;99.90;;;;;;4926836;28;20047;-70
2023/08/23 06:19:30;;;;;;;0.13;0.13;;;18.10;99.90;;;;;;4940616;28;20059;-70
2023/08/23 06:21:55;;;;;;;0.00;0.00;;;18.10;99.90;;;;;;4909725;28;20044;-70
2023/08/23 06:24:21;;;;;;;0.20;0.20;;;18.20;99.90;;;;;;4954256;28;20567;-71
2023/08/23 06:26:47;;;;;;;1.33;0.45;;;18.20;99.90;;;;;;4941132;28;20044;-70
2023/08/23 06:29:12;;;;;;;0.73;0.73;;;18.20;99.90;;;;;;4949653;28;20092;-71
2023/08/23 06:31:38;;;;;;;0.38;0.38;;;18.20;99.90;;;;;;4926722;28;20051;-70
2023/08/23 06:34:04;;;;;;;2.63;0.98;;;18.20;99.90;;;;;;4952612;28;20446;-70
2023/08/23 06:36:29;;;;;;;0.15;0.15;;;18.30;99.90;;;;;;4937638;28;20048;-71
2023/08/23 06:38:55;;;;;;;0.40;0.40;;;18.30;99.90;;;;;;4934469;28;20051;-70
2023/08/23 06:41:20;;;;;;;1.40;1.30;;;18.40;99.90;;;;;;4926350;28;20132;-70
2023/08/23 06:43:47;;;;;;;1.92;1.75;;;18.40;99.90;;;;;;4941374;28;20047;-71
2023/08/23 06:46:13;;;;;;;0.28;0.28;;;18.50;99.90;;;;;;4922081;28;20050;-71
2023/08/23 06:48:39;;;;;;;0.20;0.20;;;18.60;99.90;;;;;;4973567;28;20375;-71
2023/08/23 06:51:04;;;;;;;1.83;0.38;;;18.70;99.90;;;;;;4945767;28;20075;-70
2023/08/23 06:53:31;;;;;;;0.20;0.20;;;18.80;99.90;;;;;;4924417;28;20085;-70
2023/08/23 06:55:57;;;;;;;1.45;0.73;;;18.80;99.90;;;;;;4921256;28;20099;-70
2023/08/23 06:58:22;;;;;;;0.93;0.93;;;18.90;99.90;;;;;;4963649;28;20052;-70
2023/08/23 07:00:48;;;;;;;1.85;0.77;;;18.90;99.90;;;;;;4950114;28;20051;-70
2023/08/23 07:03:14;;;;;;;0.38;0.38;;;19.00;99.90;;;;;;4914185;28;20053;-70
2023/08/23 07:05:39;;;;;;;0.38;0.38;;;19.10;99.90;;;;;;4968637;28;20057;-70
2023/08/23 07:08:05;;;;;;;3.47;0.43;;;19.20;99.90;;;;;;4978886;28;20045;-70
2023/08/23 07:10:31;;;;;;;1.98;1.05;;;19.30;99.90;;;;;;4916036;28;20052;-70
2023/08/23 07:12:57;;;;;;;0.20;0.20;;;19.40;99.90;;;;;;4962546;28;20049;-70
2023/08/23 07:15:23;;;;;;;0.88;0.88;;;19.40;99.90;;;;;;4920626;28;20495;-70
2023/08/23 07:17:49;;;;;;;0.30;0.30;;;19.50;99.90;;;;;;4964770;28;20037;-71
2023/08/23 07:20:15;;;;;;;0.00;0.00;;;19.50;99.90;;;;;;4939488;28;20049;-70
2023/08/23 07:22:42;;;;;;;2.47;1.65;;;19.50;99.90;;;;;;4940436;28;20052;-70
2023/08/23 07:25:08;;;;;;;1.17;0.68;;;19.60;99.90;;;;;;4944769;28;20056;-70
2023/08/23 07:27:33;;;;;;;0.10;0.10;;;19.60;99.90;;;;;;4964489;28;20425;-70
2023/08/23 07:29:59;;;;;;;0.17;0.17;;;19.60;99.90;;;;;;4905408;28;20051;-70
2023/08/23 07:32:30;;;;;;;0.22;0.22;;;19.60;99.90;;;;;;4966212;28;20490;-70
2023/08/23 07:34:56;;;;;;;6.78;0.75;;;19.60;99.90;;;;;;4948141;28;20534;-70
2023/08/23 07:37:22;;;;;;;0.73;0.73;;;19.80;99.90;;;;;;4943968;28;20581;-69
2023/08/23 07:39:48;;;;;;;0.52;0.40;;;19.90;99.90;;;;;;4957331;28;20079;-69
2023/08/23 07:42:14;;;;;;;0.40;0.40;;;19.80;99.90;;;;;;4932614;28;20421;-70
2023/08/23 07:44:39;;;;;;;1.02;0.75;;;19.90;99.90;;;;;;4951139;28;20114;-70
2023/08/23 07:47:05;;;;;;;2.25;2.03;;;19.90;99.90;;;;;;4988584;28;20059;-70
2023/08/23 07:49:30;;;;;;;0.20;0.20;;;20.00;99.90;;;;;;4933596;28;20056;-70
2023/08/23 07:51:57;;;;;;;0.82;0.82;;;20.00;99.90;;;;;;4973495;28;20042;-70
2023/08/23 07:54:22;;;;;;;0.00;0.00;;;20.10;99.90;;;;;;4960748;28;20038;-69
2023/08/23 07:56:48;;;;;;;0.10;0.10;;;20.10;99.90;;;;;;4942952;28;20176;-70
2023/08/23 07:59:13;;;;;;;0.47;0.30;;;20.20;99.90;;;;;;4924926;28;20070;-70
2023/08/23 08:01:39;;;;;;;0.00;0.00;;;20.20;99.90;;;;;;4967998;28;20512;-70
2023/08/23 08:04:05;;;;;;;0.17;0.17;;;20.20;99.90;;;;;;4951508;28;20059;-71
2023/08/23 08:06:30;;;;;;;0.00;0.00;;;20.30;99.90;;;;;;4923521;28;20054;-70
2023/08/23 08:08:56;;;;;;;0.10;0.10;;;20.40;99.90;;;;;;4969215;28;20047;-70
2023/08/23 08:11:22;;;;;;;0.10;0.10;;;20.50;99.90;;;;;;4915197;28;20052;-70
2023/08/23 08:13:47;;;;;;;0.65;0.35;;;20.50;99.90;;;;;;4928989;28;20078;-70
2023/08/23 08:16:14;;;;;;;0.45;0.45;;;20.60;99.90;;;;;;4929270;28;20409;-70
2023/08/23 08:18:40;;;;;;;0.10;0.10;;;20.70;99.90;;;;;;4975132;28;20098;-71
2023/08/23 08:21:06;;;;;;;4.57;0.90;;;20.80;99.90;;;;;;4971000;28;20084;-70
2023/08/23 08:23:32;;;;;;;0.10;0.10;;;20.80;99.90;;;;;;4955833;28;20048;-71
2023/08/23 08:25:58;;;;;;;0.00;0.00;;;20.80;99.90;;;;;;4953991;28;20045;-71
2023/08/23 08:28:24;;;;;;;0.17;0.17;;;20.80;99.90;;;;;;4964335;28;20053;-70
2023/08/23 08:30:50;;;;;;;0.15;0.15;;;20.80;99.90;;;;;;4918848;28;20504;-70
2023/08/23 08:33:16;;;;;;;0.50;0.50;;;20.80;99.90;;;;;;4930162;28;20083;-71
2023/08/23 08:35:43;;;;;;;0.70;0.55;;;20.80;99.90;;;;;;4964585;28;20104;-71
2023/08/23 08:38:09;;;;;;;0.10;0.10;;;20.90;99.90;;;;;;4959434;28;20060;-70
2023/08/23 08:40:37;;;;;;;0.15;0.15;;;21.00;99.90;;;;;;4930592;28;20068;-70
2023/08/23 08:43:02;;;;;;;0.13;0.10;;;21.00;99.90;;;;;;4929950;28;20127;-70
2023/08/23 08:45:28;;;;;;;0.17;0.17;;;21.00;99.90;;;;;;4934775;28;20120;-70
2023/08/23 08:47:54;;;;;;;4.38;0.30;;;21.00;99.90;;;;;;4930121;28;20048;-70
2023/08/23 08:50:20;;;;;;;0.28;0.28;;;21.10;99.90;;;;;;4970181;28;20053;-70
2023/08/23 08:52:51;;;;;;;0.57;0.32;;;21.10;99.90;;;;;;4958259;28;20427;-70
2023/08/23 08:55:21;;;;;;;0.00;0.00;;;21.10;99.90;;;;;;4951969;28;20042;-70
2023/08/23 08:57:53;;;;;;;0.13;0.10;;;21.30;99.90;;;;;;4940501;28;20044;-70
2023/08/23 09:00:22;;;;;;;0.05;0.05;;;21.20;99.90;;;;;;4947468;28;20043;-70
2023/08/23 09:02:51;;;;;;;0.60;0.60;;;21.30;99.90;;;;;;4944051;28;20044;-70
2023/08/23 09:05:19;;;;;;;0.08;0.08;;;21.30;99.90;;;;;;4970028;28;20052;-71
2023/08/23 09:07:44;;;;;;;0.00;0.00;;;21.40;99.90;;;;;;4923681;28;20416;-71
2023/08/23 09:10:10;;;;;;;0.30;0.30;;;21.60;99.90;;;;;;4941231;28;20392;-70
2023/08/23 09:12:36;;;;;;;0.15;0.15;;;22.10;99.90;;;;;;4950202;28;20485;-71
2023/08/23 09:15:05;;;;;;;0.25;0.25;;;22.30;99.90;;;;;;4967355;28;20370;-70
2023/08/23 09:17:34;;;;;;;12.63;0.73;;;22.40;99.90;;;;;;4927291;28;20181;-71
2023/08/23 09:20:04;;;;;;;4.15;1.27;;;22.90;99.90;;;;;;4928552;28;20512;-70
2023/08/23 09:22:29;;;;;;;0.00;0.00;;;23.00;99.90;;;;;;4902648;28;20511;-71
2023/08/23 09:24:55;;;;;;;0.85;0.47;;;23.00;99.90;;;;;;4952256;28;20047;-71
2023/08/23 09:27:22;;;;;;;0.30;0.30;;;23.20;99.90;;;;;;4921839;28;20045;-71
2023/08/23 09:29:48;;;;;;;0.05;0.05;;;23.10;99.90;;;;;;4939212;28;20075;-71
2023/08/23 09:32:14;;;;;;;0.28;0.20;;;23.10;99.90;;;;;;4937862;28;20073;-71
2023/08/23 09:34:40;;;;;;;0.13;0.13;;;23.10;99.90;;;;;;4948420;28;20061;-71
2023/08/23 09:37:08;;;;;;;0.52;0.52;;;23.00;99.90;;;;;;4969643;28;20041;-71
2023/08/23 09:39:34;;;;;;;0.50;0.50;;;23.10;99.90;;;;;;4966810;28;20059;-71
2023/08/23 09:42:05;;;;;;;0.20;0.05;;;23.40;99.90;;;;;;4915699;28;20048;-71
2023/08/23 09:44:37;;;;;;;0.00;0.00;;;23.30;99.90;;;;;;4910959;28;20045;-71
2023/08/23 09:47:06;;;;;;;0.50;0.30;;;23.50;99.90;;;;;;4933322;28;20055;-71
2023/08/23 09:49:33;;;;;;;1.13;0.63;;;23.70;99.90;;;;;;4932070;28;20048;-71
2023/08/23 09:52:00;;;;;;;0.00;0.00;;;24.10;99.90;;;;;;4915143;28;20044;-71
2023/08/23 09:55:08;;;;;;;0.00;0.00;;;24.50;99.90;;;;;;4944412;28;20048;-71
2023/08/23 09:57:34;;;;;;;0.00;0.00;;;24.80;99.90;;;;;;4914428;28;20499;-71
2023/08/23 10:00:01;;;;;;;0.10;0.10;;;25.10;99.90;;;;;;4914292;28;20136;-72
2023/08/23 10:02:29;;;;;;;0.25;0.25;;;25.30;99.90;;;;;;4961033;28;20052;-71
2023/08/23 10:04:56;;;;;;;0.10;0.10;;;25.60;99.90;;;;;;4949450;28;20107;-71
2023/08/23 10:07:23;;;;;;;0.28;0.10;;;25.80;99.90;;;;;;4912517;28;20044;-72
2023/08/23 10:09:50;;;;;;;0.50;0.50;;;26.10;99.90;;;;;;4946939;28;20092;-72
2023/08/23 10:12:16;;;;;;;0.10;0.10;;;26.30;99.90;;;;;;4946121;28;20522;-71
2023/08/23 10:14:49;;;;;;;0.75;0.30;;;26.30;99.90;;;;;;4911858;28;20515;-71
2023/08/23 10:17:19;;;;;;;0.28;0.28;;;26.30;99.90;;;;;;4912606;28;20075;-71
2023/08/23 10:19:49;;;;;;;0.10;0.10;;;26.20;99.90;;;;;;4892823;28;20493;-72
2023/08/23 10:22:17;;;;;;;0.20;0.20;;;26.20;99.90;;;;;;4903128;28;20055;-71
2023/08/23 10:24:47;;;;;;;0.10;0.10;;;26.20;99.90;;;;;;4975139;28;20507;-71
2023/08/23 10:27:12;;;;;;;0.43;0.43;;;26.20;99.90;;;;;;4916173;28;20056;-71
2023/08/23 10:29:38;;;;;;;0.10;0.10;;;26.10;99.90;;;;;;4971283;28;20038;-71
2023/08/23 10:32:08;;;;;;;1.92;0.95;;;25.90;99.90;;;;;;4931151;28;20045;-70
2023/08/23 10:34:36;;;;;;;4.10;1.13;;;25.80;99.90;;;;;;4963607;28;20072;-71
2023/08/23 10:37:17;;;;;;;0.00;0.00;;;25.70;99.90;;;;;;4923553;28;20049;-71
2023/08/23 10:39:53;;;;;;;0.10;0.10;;;25.70;99.90;;;;;;4950502;28;20080;-71
2023/08/23 10:42:21;;;;;;;0.00;0.00;;;25.80;99.90;;;;;;4929284;28;20052;-71
2023/08/23 10:45:04;;;;;;;0.10;0.10;;;25.80;99.90;;;;;;4913652;28;20072;-71
2023/08/23 10:47:35;;;;;;;13.30;2.88;;;25.70;99.90;;;;;;4911625;28;20045;-72
2023/08/23 10:50:02;;;;;;;0.30;0.30;;;25.90;99.90;;;;;;4913571;28;20095;-72
2023/08/23 10:52:28;;;;;;;4.18;0.90;;;25.70;99.90;;;;;;4965781;28;20127;-72
2023/08/23 10:54:54;;;;;;;0.10;0.10;;;25.60;99.90;;;;;;4957188;28;20125;-71
2023/08/23 10:57:19;;;;;;;0.00;0.00;;;25.50;99.90;;;;;;4904858;28;20381;-71
2023/08/23 10:59:45;;;;;;;0.10;0.10;;;25.20;99.90;;;;;;4916927;28;20131;-71
2023/08/23 11:02:11;;;;;;;0.00;0.00;;;25.00;99.90;;;;;;4959801;28;20038;-71
2023/08/23 11:04:37;;;;;;;0.25;0.25;;;25.10;99.90;;;;;;4931691;28;20077;-71
2023/08/23 11:07:03;;;;;;;0.17;0.13;;;24.90;99.90;;;;;;4964204;28;20077;-71
2023/08/23 11:09:29;;;;;;;0.00;0.00;;;25.20;99.90;;;;;;4936688;28;20049;-71
2023/08/23 11:11:54;;;;;;;0.00;0.00;;;24.90;99.90;;;;;;4916862;28;20046;-71
2023/08/23 11:14:20;;;;;;;0.00;0.00;;;24.70;99.90;;;;;;4921240;28;20063;-72
2023/08/23 11:16:46;;;;;;;0.00;0.00;;;24.70;99.90;;;;;;4995745;28;20046;-71
2023/08/23 11:19:12;;;;;;;0.00;0.00;;;24.90;99.90;;;;;;4902987;28;20052;-71
2023/08/23 11:21:38;;;;;;;0.70;0.40;;;24.70;99.90;;;;;;4945025;28;20046;-71
2023/08/23 11:24:04;;;;;;;0.77;0.47;;;24.70;99.90;;;;;;4915921;28;20044;-69
2023/08/23 11:26:37;;;;;;;0.00;0.00;;;24.70;99.90;;;;;;4915359;28;20048;-71
2023/08/23 11:29:03;;;;;;;0.05;0.05;;;24.90;99.90;;;;;;4933880;28;20099;-71
2023/08/23 11:31:31;;;;;;;0.00;0.00;;;25.10;99.90;;;;;;4927289;28;20099;-71
2023/08/23 11:33:59;;;;;;;0.00;0.00;;;25.30;99.90;;;;;;4958244;28;20064;-71
2023/08/23 11:36:26;;;;;;;0.10;0.08;;;25.40;99.90;;;;;;4968154;28;20092;-70
2023/08/23 11:38:53;;;;;;;0.00;0.00;;;25.50;99.90;;;;;;4914454;28;20048;-70
2023/08/23 11:41:30;;;;;;;2.55;0.55;;;25.50;99.90;;;;;;4941231;28;20106;-70
2023/08/23 11:43:55;;;;;;;1.75;1.20;;;25.30;99.90;;;;;;4934984;28;20428;-70
2023/08/23 11:46:21;;;;;;;0.15;0.15;;;25.20;99.90;;;;;;4934962;28;20060;-69
2023/08/23 11:48:47;;;;;;;0.00;0.00;;;25.20;99.90;;;;;;4981026;28;20041;-69
2023/08/23 11:51:13;;;;;;;0.03;0.03;;;25.20;99.90;;;;;;4958269;28;20041;-70
2023/08/23 11:53:54;;;;;;;0.00;0.00;;;25.40;99.90;;;;;;4950186;28;20048;-69
2023/08/23 11:56:21;;;;;;;0.00;0.00;;;25.70;99.90;;;;;;4967026;28;20054;-69
2023/08/23 11:58:47;;;;;;;0.00;0.00;;;25.50;99.90;;;;;;4922106;28;20040;-68
2023/08/23 12:01:13;;;;;;;0.10;0.10;;;25.20;99.90;;;;;;4963735;28;20041;-69
2023/08/23 12:03:39;;;;;;;0.00;0.00;;;24.90;99.90;;;;;;4935122;28;20045;-69
2023/08/23 12:06:04;;;;;;;0.10;0.10;;;24.70;99.90;;;;;;4919080;28;20091;-69
2023/08/23 12:08:30;;;;;;;0.10;0.10;;;25.20;99.90;;;;;;4974667;28;20233;-69
2023/08/23 12:10:56;;;;;;;0.63;0.55;;;25.90;99.90;;;;;;4987002;28;20034;-69
2023/08/23 12:13:21;;;;;;;8.48;1.17;;;25.60;99.90;;;;;;4969198;28;20046;-69
2023/08/23 12:15:47;;;;;;;0.03;0.03;;;25.10;99.90;;;;;;4920413;28;20044;-69
2023/08/23 12:18:12;;;;;;;0.17;0.17;;;25.70;99.90;;;;;;4955357;28;20140;-69
2023/08/23 12:20:38;;;;;;;11.65;0.40;;;26.30;99.90;;;;;;4970315;28;20040;-69
2023/08/23 12:23:04;;;;;;;1.33;1.08;;;26.50;99.90;;;;;;4943737;28;20483;-70
2023/08/23 12:25:29;;;;;;;0.30;0.30;;;26.70;99.90;;;;;;4913464;28;20079;-69
2023/08/23 12:27:55;;;;;;;0.10;0.10;;;27.20;99.90;;;;;;4976553;28;20119;-69
2023/08/23 12:30:20;;;;;;;0.00;0.00;;;27.20;99.90;;;;;;4992280;28;20054;-69
2023/08/23 12:32:46;;;;;;;0.00;0.00;;;26.80;99.90;;;;;;4928425;28;20056;-69
2023/08/23 12:35:12;;;;;;;0.20;0.20;;;26.50;99.90;;;;;;4963874;28;20044;-69
2023/08/23 12:37:38;;;;;;;0.00;0.00;;;26.30;99.90;;;;;;4953342;28;20048;-69
2023/08/23 12:40:08;;;;;;;0.00;0.00;;;26.30;99.90;;;;;;4937527;28;20131;-69
2023/08/23 12:42:33;;;;;;;0.00;0.00;;;26.30;99.90;;;;;;4944978;28;20137;-69